sensor_id;sensor_type;location;lat;lon;timestamp;P1;P2;P0
34240;PMS7003;20503;50.200;19.508;2024-03-23T00:54:12;41;32;19
34240;PMS7003;20503;50.200;19.508;2024-03-23T00:55:13;40;32;20
34240;PMS7003;20503;50.200;19.508;2024-03-23T00:56:15;40;32;20
34240;PMS7003;20503;50.200;19.508;2024-03-23T00:57:16;41;32;20
34240;PMS7003;20503;50.200;19.508;2024-03-23T00:58:17;41;33;20
34240;PMS7003;20503;50.200;19.508;2024-03-23T00:59:19;43;30;20
34240;PMS7003;20503;50.200;19.508;2024-03-23T01:00:22;38;30;18
34240;PMS7003;20503;50.200;19.508;2024-03-23T01:01:24;34;27;18
34240;PMS7003;20503;50.200;19.508;2024-03-23T01:02:44;37;28;18
34240;PMS7003;20503;50.200;19.508;2024-03-23T01:03:45;41;28;20
34240;PMS7003;20503;50.200;19.508;2024-03-23T01:04:47;36;29;18
34240;PMS7003;20503;50.200;19.508;2024-03-23T01:05:48;36;29;18
34240;PMS7003;20503;50.200;19.508;2024-03-23T01:06:50;37;28;18
34240;PMS7003;20503;50.200;19.508;2024-03-23T01:07:53;37;28;18
34240;PMS7003;20503;50.200;19.508;2024-03-23T01:08:54;39;31;18
34240;PMS7003;20503;50.200;19.508;2024-03-23T01:09:56;40;31;19
34240;PMS7003;20503;50.200;19.508;2024-03-23T01:11:01;40;33;20
34240;PMS7003;20503;50.200;19.508;2024-03-23T01:12:06;41;31;20
34240;PMS7003;20503;50.200;19.508;2024-03-23T01:13:07;41;31;20
34240;PMS7003;20503;50.200;19.508;2024-03-23T01:14:09;37;30;18
34240;PMS7003;20503;50.200;19.508;2024-03-23T01:15:10;37;30;18
34240;PMS7003;20503;50.200;19.508;2024-03-23T01:16:11;37;30;19
34240;PMS7003;20503;50.200;19.508;2024-03-23T01:17:14;40;29;18
34240;PMS7003;20503;50.200;19.508;2024-03-23T01:18:15;40;29;18
34240;PMS7003;20503;50.200;19.508;2024-03-23T01:19:17;38;32;19
34240;PMS7003;20503;50.200;19.508;2024-03-23T01:20:27;39;29;19
34240;PMS7003;20503;50.200;19.508;2024-03-23T01:21:29;38;29;19
34240;PMS7003;20503;50.200;19.508;2024-03-23T01:22:30;39;29;19
34240;PMS7003;20503;50.200;19.508;2024-03-23T01:23:32;39;29;19
34240;PMS7003;20503;50.200;19.508;2024-03-23T01:24:33;38;29;18
34240;PMS7003;20503;50.200;19.508;2024-03-23T01:25:34;38;29;18
34240;PMS7003;20503;50.200;19.508;2024-03-23T01:26:35;37;30;18
34240;PMS7003;20503;50.200;19.508;2024-03-23T01:27:37;37;30;18
34240;PMS7003;20503;50.200;19.508;2024-03-23T01:28:39;30;27;19
34240;PMS7003;20503;50.200;19.508;2024-03-23T01:29:40;39;30;19
34240;PMS7003;20503;50.200;19.508;2024-03-23T01:30:42;39;30;19
34240;PMS7003;20503;50.200;19.508;2024-03-23T01:31:43;39;31;18
34240;PMS7003;20503;50.200;19.508;2024-03-23T01:32:44;39;31;18
34240;PMS7003;20503;50.200;19.508;2024-03-23T01:33:45;34;28;18
34240;PMS7003;20503;50.200;19.508;2024-03-23T01:34:47;34;28;19
34240;PMS7003;20503;50.200;19.508;2024-03-23T01:35:48;34;28;19
34240;PMS7003;20503;50.200;19.508;2024-03-23T01:36:50;38;29;18
34240;PMS7003;20503;50.200;19.508;2024-03-23T01:37:52;39;28;17
34240;PMS7003;20503;50.200;19.508;2024-03-23T01:38:54;39;28;17
34240;PMS7003;20503;50.200;19.508;2024-03-23T01:39:55;36;30;17
34240;PMS7003;20503;50.200;19.508;2024-03-23T01:40:57;36;30;17
34240;PMS7003;20503;50.200;19.508;2024-03-23T01:42:19;38;30;17
34240;PMS7003;20503;50.200;19.508;2024-03-23T01:43:21;35;28;18
34240;PMS7003;20503;50.200;19.508;2024-03-23T01:44:23;35;28;18
34240;PMS7003;20503;50.200;19.508;2024-03-23T01:45:29;38;31;18
34240;PMS7003;20503;50.200;19.508;2024-03-23T01:46:31;38;31;18
34240;PMS7003;20503;50.200;19.508;2024-03-23T01:47:34;36;30;18
34240;PMS7003;20503;50.200;19.508;2024-03-23T01:48:36;36;30;18
34240;PMS7003;20503;50.200;19.508;2024-03-23T01:49:37;36;30;18
34240;PMS7003;20503;50.200;19.508;2024-03-23T01:50:39;37;30;18
34240;PMS7003;20503;50.200;19.508;2024-03-23T01:51:40;37;30;18
34240;PMS7003;20503;50.200;19.508;2024-03-23T01:52:44;41;31;19
34240;PMS7003;20503;50.200;19.508;2024-03-23T01:54:03;40;30;19
34240;PMS7003;20503;50.200;19.508;2024-03-23T01:55:07;37;30;20
34240;PMS7003;20503;50.200;19.508;2024-03-23T01:56:08;37;30;20
34240;PMS7003;20503;50.200;19.508;2024-03-23T01:57:10;42;33;19
34240;PMS7003;20503;50.200;19.508;2024-03-23T01:58:14;40;32;20
34240;PMS7003;20503;50.200;19.508;2024-03-23T01:59:42;43;34;22
34240;PMS7003;20503;50.200;19.508;2024-03-23T02:00:43;43;34;22
34240;PMS7003;20503;50.200;19.508;2024-03-23T02:01:45;41;34;22
34240;PMS7003;20503;50.200;19.508;2024-03-23T02:02:47;41;32;19
34240;PMS7003;20503;50.200;19.508;2024-03-23T02:03:48;41;32;19
34240;PMS7003;20503;50.200;19.508;2024-03-23T02:04:51;43;34;21
34240;PMS7003;20503;50.200;19.508;2024-03-23T02:05:53;45;35;21
34240;PMS7003;20503;50.200;19.508;2024-03-23T02:06:56;45;35;20
34240;PMS7003;20503;50.200;19.508;2024-03-23T02:07:58;45;35;20
34240;PMS7003;20503;50.200;19.508;2024-03-23T02:09:00;41;33;19
34240;PMS7003;20503;50.200;19.508;2024-03-23T02:10:01;42;36;20
34240;PMS7003;20503;50.200;19.508;2024-03-23T02:11:03;43;34;20
34240;PMS7003;20503;50.200;19.508;2024-03-23T02:12:29;47;35;21
34240;PMS7003;20503;50.200;19.508;2024-03-23T02:13:38;45;37;21
34240;PMS7003;20503;50.200;19.508;2024-03-23T02:14:39;45;37;21
34240;PMS7003;20503;50.200;19.508;2024-03-23T02:15:41;48;36;22
34240;PMS7003;20503;50.200;19.508;2024-03-23T02:16:42;52;37;23
34240;PMS7003;20503;50.200;19.508;2024-03-23T02:17:44;48;37;23
34240;PMS7003;20503;50.200;19.508;2024-03-23T02:18:56;47;38;23
34240;PMS7003;20503;50.200;19.508;2024-03-23T02:20:27;42;34;19
34240;PMS7003;20503;50.200;19.508;2024-03-23T02:21:28;40;32;18
34240;PMS7003;20503;50.200;19.508;2024-03-23T02:22:36;40;32;18
34240;PMS7003;20503;50.200;19.508;2024-03-23T02:23:39;41;31;19
34240;PMS7003;20503;50.200;19.508;2024-03-23T02:24:40;41;31;19
34240;PMS7003;20503;50.200;19.508;2024-03-23T02:25:42;37;29;18
34240;PMS7003;20503;50.200;19.508;2024-03-23T02:26:43;40;31;18
34240;PMS7003;20503;50.200;19.508;2024-03-23T02:28:01;38;28;19
34240;PMS7003;20503;50.200;19.508;2024-03-23T02:29:02;38;28;19
34240;PMS7003;20503;50.200;19.508;2024-03-23T02:30:04;37;30;20
34240;PMS7003;20503;50.200;19.508;2024-03-23T02:31:06;42;32;20
34240;PMS7003;20503;50.200;19.508;2024-03-23T02:32:08;42;32;20
34240;PMS7003;20503;50.200;19.508;2024-03-23T02:33:12;36;29;19
34240;PMS7003;20503;50.200;19.508;2024-03-23T02:34:13;36;29;19
34240;PMS7003;20503;50.200;19.508;2024-03-23T02:35:15;38;31;19
34240;PMS7003;20503;50.200;19.508;2024-03-23T02:36:17;40;32;19
34240;PMS7003;20503;50.200;19.508;2024-03-23T02:37:18;40;32;19
34240;PMS7003;20503;50.200;19.508;2024-03-23T02:38:20;40;31;19
34240;PMS7003;20503;50.200;19.508;2024-03-23T02:39:21;40;31;19
34240;PMS7003;20503;50.200;19.508;2024-03-23T02:40:23;41;33;19
34240;PMS7003;20503;50.200;19.508;2024-03-23T02:41:26;38;31;19
34240;PMS7003;20503;50.200;19.508;2024-03-23T02:42:34;44;33;21
34240;PMS7003;20503;50.200;19.508;2024-03-23T02:43:36;43;32;19
34240;PMS7003;20503;50.200;19.508;2024-03-23T02:44:37;41;31;19
34240;PMS7003;20503;50.200;19.508;2024-03-23T02:45:38;41;31;19
34240;PMS7003;20503;50.200;19.508;2024-03-23T02:46:51;43;33;21
34240;PMS7003;20503;50.200;19.508;2024-03-23T02:47:53;43;33;21
34240;PMS7003;20503;50.200;19.508;2024-03-23T02:48:55;47;38;23
34240;PMS7003;20503;50.200;19.508;2024-03-23T02:49:57;47;38;23
34240;PMS7003;20503;50.200;19.508;2024-03-23T02:50:58;37;32;20
34240;PMS7003;20503;50.200;19.508;2024-03-23T02:52:00;37;32;20
34240;PMS7003;20503;50.200;19.508;2024-03-23T02:53:01;40;33;20
34240;PMS7003;20503;50.200;19.508;2024-03-23T02:54:03;38;29;18
34240;PMS7003;20503;50.200;19.508;2024-03-23T02:55:27;41;30;18
34240;PMS7003;20503;50.200;19.508;2024-03-23T02:56:28;38;31;18
34240;PMS7003;20503;50.200;19.508;2024-03-23T02:57:30;38;31;18
34240;PMS7003;20503;50.200;19.508;2024-03-23T02:58:31;36;30;19
34240;PMS7003;20503;50.200;19.508;2024-03-23T02:59:33;38;32;19
34240;PMS7003;20503;50.200;19.508;2024-03-23T03:00:34;41;33;19
34240;PMS7003;20503;50.200;19.508;2024-03-23T03:01:36;41;33;19
34240;PMS7003;20503;50.200;19.508;2024-03-23T03:02:37;32;27;19
34240;PMS7003;20503;50.200;19.508;2024-03-23T03:03:39;32;27;19
34240;PMS7003;20503;50.200;19.508;2024-03-23T03:04:40;37;28;18
34240;PMS7003;20503;50.200;19.508;2024-03-23T03:05:55;32;27;17
34240;PMS7003;20503;50.200;19.508;2024-03-23T03:06:57;32;27;17
34240;PMS7003;20503;50.200;19.508;2024-03-23T03:07:59;31;23;16
34240;PMS7003;20503;50.200;19.508;2024-03-23T03:09:00;35;26;17
34240;PMS7003;20503;50.200;19.508;2024-03-23T03:10:02;33;26;17
34240;PMS7003;20503;50.200;19.508;2024-03-23T03:11:06;33;26;17
34240;PMS7003;20503;50.200;19.508;2024-03-23T03:12:08;31;24;15
34240;PMS7003;20503;50.200;19.508;2024-03-23T03:13:09;31;24;15
34240;PMS7003;20503;50.200;19.508;2024-03-23T03:14:11;32;25;16
34240;PMS7003;20503;50.200;19.508;2024-03-23T03:15:13;31;24;15
34240;PMS7003;20503;50.200;19.508;2024-03-23T03:16:14;33;26;17
34240;PMS7003;20503;50.200;19.508;2024-03-23T03:17:16;35;25;17
34240;PMS7003;20503;50.200;19.508;2024-03-23T03:18:17;35;25;17
34240;PMS7003;20503;50.200;19.508;2024-03-23T03:19:18;32;27;16
34240;PMS7003;20503;50.200;19.508;2024-03-23T03:20:20;32;27;16
34240;PMS7003;20503;50.200;19.508;2024-03-23T03:21:24;33;25;16
34240;PMS7003;20503;50.200;19.508;2024-03-23T03:22:25;33;25;16
34240;PMS7003;20503;50.200;19.508;2024-03-23T03:23:27;31;24;15
34240;PMS7003;20503;50.200;19.508;2024-03-23T03:24:28;32;25;15
34240;PMS7003;20503;50.200;19.508;2024-03-23T03:25:29;34;24;14
34240;PMS7003;20503;50.200;19.508;2024-03-23T03:26:46;33;24;16
34240;PMS7003;20503;50.200;19.508;2024-03-23T03:27:48;33;25;16
34240;PMS7003;20503;50.200;19.508;2024-03-23T03:28:50;27;22;14
34240;PMS7003;20503;50.200;19.508;2024-03-23T03:29:52;27;22;14
34240;PMS7003;20503;50.200;19.508;2024-03-23T03:30:53;31;25;15
34240;PMS7003;20503;50.200;19.508;2024-03-23T03:31:54;31;25;15
34240;PMS7003;20503;50.200;19.508;2024-03-23T03:32:56;36;27;16
34240;PMS7003;20503;50.200;19.508;2024-03-23T03:33:57;30;23;15
34240;PMS7003;20503;50.200;19.508;2024-03-23T03:34:59;30;23;15
34240;PMS7003;20503;50.200;19.508;2024-03-23T03:36:00;32;26;15
34240;PMS7003;20503;50.200;19.508;2024-03-23T03:37:01;32;26;15
34240;PMS7003;20503;50.200;19.508;2024-03-23T03:38:04;33;23;15
34240;PMS7003;20503;50.200;19.508;2024-03-23T03:39:05;33;25;15
34240;PMS7003;20503;50.200;19.508;2024-03-23T03:40:07;29;23;15
34240;PMS7003;20503;50.200;19.508;2024-03-23T03:41:10;29;23;15
34240;PMS7003;20503;50.200;19.508;2024-03-23T03:42:11;31;24;16
34240;PMS7003;20503;50.200;19.508;2024-03-23T03:43:13;31;24;16
34240;PMS7003;20503;50.200;19.508;2024-03-23T03:44:14;33;26;16
34240;PMS7003;20503;50.200;19.508;2024-03-23T03:45:16;32;26;16
34240;PMS7003;20503;50.200;19.508;2024-03-23T03:46:17;32;26;16
34240;PMS7003;20503;50.200;19.508;2024-03-23T03:47:19;28;24;15
34240;PMS7003;20503;50.200;19.508;2024-03-23T03:48:20;28;24;15
34240;PMS7003;20503;50.200;19.508;2024-03-23T03:49:22;33;27;17
34240;PMS7003;20503;50.200;19.508;2024-03-23T03:50:23;30;24;17
34240;PMS7003;20503;50.200;19.508;2024-03-23T03:51:25;33;26;16
34240;PMS7003;20503;50.200;19.508;2024-03-23T03:52:26;33;26;16
34240;PMS7003;20503;50.200;19.508;2024-03-23T03:53:28;33;27;17
34240;PMS7003;20503;50.200;19.508;2024-03-23T03:54:29;33;27;17
34240;PMS7003;20503;50.200;19.508;2024-03-23T03:55:33;41;32;19
34240;PMS7003;20503;50.200;19.508;2024-03-23T03:56:34;41;32;19
34240;PMS7003;20503;50.200;19.508;2024-03-23T03:58:00;40;32;19
34240;PMS7003;20503;50.200;19.508;2024-03-23T03:59:02;40;31;19
34240;PMS7003;20503;50.200;19.508;2024-03-23T04:00:03;30;26;17
34240;PMS7003;20503;50.200;19.508;2024-03-23T04:01:05;36;27;17
34240;PMS7003;20503;50.200;19.508;2024-03-23T04:02:07;36;27;17
34240;PMS7003;20503;50.200;19.508;2024-03-23T04:03:08;34;27;17
34240;PMS7003;20503;50.200;19.508;2024-03-23T04:04:10;34;27;17
34240;PMS7003;20503;50.200;19.508;2024-03-23T04:05:12;37;30;18
34240;PMS7003;20503;50.200;19.508;2024-03-23T04:06:18;34;28;18
34240;PMS7003;20503;50.200;19.508;2024-03-23T04:07:21;34;28;18
34240;PMS7003;20503;50.200;19.508;2024-03-23T04:08:24;34;27;16
34240;PMS7003;20503;50.200;19.508;2024-03-23T04:09:25;34;28;16
34240;PMS7003;20503;50.200;19.508;2024-03-23T04:10:27;35;28;17
34240;PMS7003;20503;50.200;19.508;2024-03-23T04:11:31;35;28;17
34240;PMS7003;20503;50.200;19.508;2024-03-23T04:12:43;35;28;18
34240;PMS7003;20503;50.200;19.508;2024-03-23T04:13:47;35;28;18
34240;PMS7003;20503;50.200;19.508;2024-03-23T04:14:49;37;27;16
34240;PMS7003;20503;50.200;19.508;2024-03-23T04:15:54;37;27;17
34240;PMS7003;20503;50.200;19.508;2024-03-23T04:16:56;37;27;17
34240;PMS7003;20503;50.200;19.508;2024-03-23T04:17:58;34;26;17
34240;PMS7003;20503;50.200;19.508;2024-03-23T04:18:59;34;26;17
34240;PMS7003;20503;50.200;19.508;2024-03-23T04:20:00;31;25;16
34240;PMS7003;20503;50.200;19.508;2024-03-23T04:21:09;33;27;16
34240;PMS7003;20503;50.200;19.508;2024-03-23T04:22:10;33;27;16
34240;PMS7003;20503;50.200;19.508;2024-03-23T04:23:22;40;31;20
34240;PMS7003;20503;50.200;19.508;2024-03-23T04:24:24;45;34;19
34240;PMS7003;20503;50.200;19.508;2024-03-23T04:25:27;48;37;23
34240;PMS7003;20503;50.200;19.508;2024-03-23T04:26:29;48;37;23
34240;PMS7003;20503;50.200;19.508;2024-03-23T04:27:31;43;35;21
34240;PMS7003;20503;50.200;19.508;2024-03-23T04:28:33;43;35;21
34240;PMS7003;20503;50.200;19.508;2024-03-23T04:29:35;41;32;19
34240;PMS7003;20503;50.200;19.508;2024-03-23T04:30:37;39;30;19
34240;PMS7003;20503;50.200;19.508;2024-03-23T04:31:44;41;30;20
34240;PMS7003;20503;50.200;19.508;2024-03-23T04:32:46;41;30;20
34240;PMS7003;20503;50.200;19.508;2024-03-23T04:33:48;42;29;19
34240;PMS7003;20503;50.200;19.508;2024-03-23T04:34:49;38;29;18
34240;PMS7003;20503;50.200;19.508;2024-03-23T04:35:51;38;29;18
34240;PMS7003;20503;50.200;19.508;2024-03-23T04:36:52;39;33;20
34240;PMS7003;20503;50.200;19.508;2024-03-23T04:37:54;39;33;20
34240;PMS7003;20503;50.200;19.508;2024-03-23T04:38:59;39;32;19
34240;PMS7003;20503;50.200;19.508;2024-03-23T04:40:01;39;32;19
34240;PMS7003;20503;50.200;19.508;2024-03-23T04:41:08;45;36;22
34240;PMS7003;20503;50.200;19.508;2024-03-23T04:42:18;51;39;24
34240;PMS7003;20503;50.200;19.508;2024-03-23T04:43:19;42;33;21
34240;PMS7003;20503;50.200;19.508;2024-03-23T04:44:21;45;35;20
34240;PMS7003;20503;50.200;19.508;2024-03-23T04:45:22;45;35;20
34240;PMS7003;20503;50.200;19.508;2024-03-23T04:46:23;35;29;18
34240;PMS7003;20503;50.200;19.508;2024-03-23T04:47:26;35;29;18
34240;PMS7003;20503;50.200;19.508;2024-03-23T04:48:27;32;27;19
34240;PMS7003;20503;50.200;19.508;2024-03-23T04:49:29;32;27;19
34240;PMS7003;20503;50.200;19.508;2024-03-23T04:50:30;36;30;18
34240;PMS7003;20503;50.200;19.508;2024-03-23T04:52:40;36;29;18
34240;PMS7003;20503;50.200;19.508;2024-03-23T04:53:41;38;30;18
34240;PMS7003;20503;50.200;19.508;2024-03-23T04:54:42;38;30;18
34240;PMS7003;20503;50.200;19.508;2024-03-23T04:55:46;37;32;19
34240;PMS7003;20503;50.200;19.508;2024-03-23T04:57:08;37;29;19
34240;PMS7003;20503;50.200;19.508;2024-03-23T04:58:09;35;26;17
34240;PMS7003;20503;50.200;19.508;2024-03-23T04:59:10;35;26;17
34240;PMS7003;20503;50.200;19.508;2024-03-23T05:00:13;36;28;17
34240;PMS7003;20503;50.200;19.508;2024-03-23T05:01:18;35;27;17
34240;PMS7003;20503;50.200;19.508;2024-03-23T05:02:20;35;27;17
34240;PMS7003;20503;50.200;19.508;2024-03-23T05:03:22;36;27;17
34240;PMS7003;20503;50.200;19.508;2024-03-23T05:04:45;34;26;17
34240;PMS7003;20503;50.200;19.508;2024-03-23T05:05:50;29;25;16
34240;PMS7003;20503;50.200;19.508;2024-03-23T05:06:52;35;28;17
34240;PMS7003;20503;50.200;19.508;2024-03-23T05:07:54;35;28;17
34240;PMS7003;20503;50.200;19.508;2024-03-23T05:08:55;31;25;16
34240;PMS7003;20503;50.200;19.508;2024-03-23T05:09:57;31;25;16
34240;PMS7003;20503;50.200;19.508;2024-03-23T05:10:58;34;25;16
34240;PMS7003;20503;50.200;19.508;2024-03-23T05:12:00;34;25;16
34240;PMS7003;20503;50.200;19.508;2024-03-23T05:13:02;34;26;15
34240;PMS7003;20503;50.200;19.508;2024-03-23T05:14:03;33;25;15
34240;PMS7003;20503;50.200;19.508;2024-03-23T05:15:04;33;25;15
34240;PMS7003;20503;50.200;19.508;2024-03-23T05:16:08;69;52;34
34240;PMS7003;20503;50.200;19.508;2024-03-23T05:17:10;69;52;34
34240;PMS7003;20503;50.200;19.508;2024-03-23T05:18:11;140;114;66
34240;PMS7003;20503;50.200;19.508;2024-03-23T05:19:13;70;52;31
34240;PMS7003;20503;50.200;19.508;2024-03-23T05:20:14;71;52;32
34240;PMS7003;20503;50.200;19.508;2024-03-23T05:21:18;60;45;29
34240;PMS7003;20503;50.200;19.508;2024-03-23T05:22:26;77;61;41
34240;PMS7003;20503;50.200;19.508;2024-03-23T05:23:28;77;61;41
34240;PMS7003;20503;50.200;19.508;2024-03-23T05:24:30;65;50;32
34240;PMS7003;20503;50.200;19.508;2024-03-23T05:25:32;65;50;32
34240;PMS7003;20503;50.200;19.508;2024-03-23T05:26:34;71;55;37
34240;PMS7003;20503;50.200;19.508;2024-03-23T05:27:37;71;55;37
34240;PMS7003;20503;50.200;19.508;2024-03-23T05:28:38;58;46;31
34240;PMS7003;20503;50.200;19.508;2024-03-23T05:29:39;59;44;29
34240;PMS7003;20503;50.200;19.508;2024-03-23T05:30:40;66;51;34
34240;PMS7003;20503;50.200;19.508;2024-03-23T05:31:42;61;47;30
34240;PMS7003;20503;50.200;19.508;2024-03-23T05:32:43;62;50;32
34240;PMS7003;20503;50.200;19.508;2024-03-23T05:34:02;62;49;32
34240;PMS7003;20503;50.200;19.508;2024-03-23T05:35:04;60;46;28
34240;PMS7003;20503;50.200;19.508;2024-03-23T05:36:09;60;46;28
34240;PMS7003;20503;50.200;19.508;2024-03-23T05:37:12;58;46;29
34240;PMS7003;20503;50.200;19.508;2024-03-23T05:38:14;58;46;29
34240;PMS7003;20503;50.200;19.508;2024-03-23T05:39:15;53;43;27
34240;PMS7003;20503;50.200;19.508;2024-03-23T05:40:33;50;38;25
34240;PMS7003;20503;50.200;19.508;2024-03-23T05:41:41;42;34;22
34240;PMS7003;20503;50.200;19.508;2024-03-23T05:42:42;40;31;20
34240;PMS7003;20503;50.200;19.508;2024-03-23T05:43:44;40;31;20
34240;PMS7003;20503;50.200;19.508;2024-03-23T05:44:57;33;27;18
34240;PMS7003;20503;50.200;19.508;2024-03-23T05:46:14;39;30;19
34240;PMS7003;20503;50.200;19.508;2024-03-23T05:47:15;38;29;17
34240;PMS7003;20503;50.200;19.508;2024-03-23T05:48:17;41;31;17
34240;PMS7003;20503;50.200;19.508;2024-03-23T05:49:21;39;33;21
34240;PMS7003;20503;50.200;19.508;2024-03-23T05:50:23;41;34;21
34240;PMS7003;20503;50.200;19.508;2024-03-23T05:51:24;54;42;28
34240;PMS7003;20503;50.200;19.508;2024-03-23T05:52:26;40;32;22
34240;PMS7003;20503;50.200;19.508;2024-03-23T05:53:28;40;32;22
34240;PMS7003;20503;50.200;19.508;2024-03-23T05:54:32;30;26;16
34240;PMS7003;20503;50.200;19.508;2024-03-23T05:55:33;30;26;16
34240;PMS7003;20503;50.200;19.508;2024-03-23T05:56:34;35;27;18
34240;PMS7003;20503;50.200;19.508;2024-03-23T05:57:35;40;33;21
34240;PMS7003;20503;50.200;19.508;2024-03-23T05:58:37;33;25;16
34240;PMS7003;20503;50.200;19.508;2024-03-23T05:59:38;29;25;16
34240;PMS7003;20503;50.200;19.508;2024-03-23T06:00:40;29;25;16
34240;PMS7003;20503;50.200;19.508;2024-03-23T06:01:43;28;21;15
34240;PMS7003;20503;50.200;19.508;2024-03-23T06:02:45;28;21;15
34240;PMS7003;20503;50.200;19.508;2024-03-23T06:03:47;44;35;23
34240;PMS7003;20503;50.200;19.508;2024-03-23T06:04:48;44;35;23
34240;PMS7003;20503;50.200;19.508;2024-03-23T06:05:50;46;34;23
34240;PMS7003;20503;50.200;19.508;2024-03-23T06:06:53;37;29;19
34240;PMS7003;20503;50.200;19.508;2024-03-23T06:07:54;37;29;19
34240;PMS7003;20503;50.200;19.508;2024-03-23T06:08:56;80;59;37
34240;PMS7003;20503;50.200;19.508;2024-03-23T06:09:57;80;59;37
34240;PMS7003;20503;50.200;19.508;2024-03-23T06:10:59;70;52;33
34240;PMS7003;20503;50.200;19.508;2024-03-23T06:12:23;57;43;28
34240;PMS7003;20503;50.200;19.508;2024-03-23T06:13:41;42;30;21
34240;PMS7003;20503;50.200;19.508;2024-03-23T06:14:43;42;30;21
34240;PMS7003;20503;50.200;19.508;2024-03-23T06:15:53;31;26;17
34240;PMS7003;20503;50.200;19.508;2024-03-23T06:16:55;31;26;17
34240;PMS7003;20503;50.200;19.508;2024-03-23T06:17:56;27;22;15
34240;PMS7003;20503;50.200;19.508;2024-03-23T06:18:59;27;22;15
34240;PMS7003;20503;50.200;19.508;2024-03-23T06:20:00;31;23;14
34240;PMS7003;20503;50.200;19.508;2024-03-23T06:21:01;26;22;14
34240;PMS7003;20503;50.200;19.508;2024-03-23T06:22:03;26;22;14
34240;PMS7003;20503;50.200;19.508;2024-03-23T06:23:07;28;22;14
34240;PMS7003;20503;50.200;19.508;2024-03-23T06:24:10;28;22;14
34240;PMS7003;20503;50.200;19.508;2024-03-23T06:25:12;30;25;16
34240;PMS7003;20503;50.200;19.508;2024-03-23T06:26:13;30;25;16
34240;PMS7003;20503;50.200;19.508;2024-03-23T06:27:14;33;27;16
34240;PMS7003;20503;50.200;19.508;2024-03-23T06:28:16;37;30;18
34240;PMS7003;20503;50.200;19.508;2024-03-23T06:29:19;37;30;18
34240;PMS7003;20503;50.200;19.508;2024-03-23T06:30:20;44;35;20
34240;PMS7003;20503;50.200;19.508;2024-03-23T06:31:31;52;38;23
34240;PMS7003;20503;50.200;19.508;2024-03-23T06:32:33;50;38;24
34240;PMS7003;20503;50.200;19.508;2024-03-23T06:33:34;50;38;24
34240;PMS7003;20503;50.200;19.508;2024-03-23T06:34:36;53;40;23
34240;PMS7003;20503;50.200;19.508;2024-03-23T06:35:37;53;40;23
34240;PMS7003;20503;50.200;19.508;2024-03-23T06:36:38;77;57;35
34240;PMS7003;20503;50.200;19.508;2024-03-23T06:37:40;63;46;27
34240;PMS7003;20503;50.200;19.508;2024-03-23T06:38:41;61;46;28
34240;PMS7003;20503;50.200;19.508;2024-03-23T06:39:43;69;52;33
34240;PMS7003;20503;50.200;19.508;2024-03-23T06:40:47;65;49;30
34240;PMS7003;20503;50.200;19.508;2024-03-23T06:41:53;65;49;30
34240;PMS7003;20503;50.200;19.508;2024-03-23T06:42:55;53;40;24
34240;PMS7003;20503;50.200;19.508;2024-03-23T06:43:56;62;47;29
34240;PMS7003;20503;50.200;19.508;2024-03-23T06:44:58;62;47;29
34240;PMS7003;20503;50.200;19.508;2024-03-23T06:46:17;55;44;29
34240;PMS7003;20503;50.200;19.508;2024-03-23T06:47:25;54;40;24
34240;PMS7003;20503;50.200;19.508;2024-03-23T06:48:27;48;36;24
34240;PMS7003;20503;50.200;19.508;2024-03-23T06:49:29;45;34;22
34240;PMS7003;20503;50.200;19.508;2024-03-23T06:50:34;41;33;22
34240;PMS7003;20503;50.200;19.508;2024-03-23T06:51:36;43;32;20
34240;PMS7003;20503;50.200;19.508;2024-03-23T06:52:40;43;32;20
34240;PMS7003;20503;50.200;19.508;2024-03-23T06:53:41;49;36;22
34240;PMS7003;20503;50.200;19.508;2024-03-23T06:54:42;49;36;22
34240;PMS7003;20503;50.200;19.508;2024-03-23T06:55:49;34;29;17
34240;PMS7003;20503;50.200;19.508;2024-03-23T06:56:53;33;26;16
34240;PMS7003;20503;50.200;19.508;2024-03-23T06:58:10;31;25;16
34240;PMS7003;20503;50.200;19.508;2024-03-23T06:59:11;32;26;17
34240;PMS7003;20503;50.200;19.508;2024-03-23T07:00:13;31;26;16
34240;PMS7003;20503;50.200;19.508;2024-03-23T07:01:17;31;27;17
34240;PMS7003;20503;50.200;19.508;2024-03-23T07:02:18;35;29;18
34240;PMS7003;20503;50.200;19.508;2024-03-23T07:03:20;42;32;20
34240;PMS7003;20503;50.200;19.508;2024-03-23T07:04:24;42;32;20
34240;PMS7003;20503;50.200;19.508;2024-03-23T07:05:25;40;33;21
34240;PMS7003;20503;50.200;19.508;2024-03-23T07:06:27;37;31;21
34240;PMS7003;20503;50.200;19.508;2024-03-23T07:07:29;35;31;20
34240;PMS7003;20503;50.200;19.508;2024-03-23T07:08:31;33;28;18
34240;PMS7003;20503;50.200;19.508;2024-03-23T07:09:33;33;28;18
34240;PMS7003;20503;50.200;19.508;2024-03-23T07:10:34;27;23;15
34240;PMS7003;20503;50.200;19.508;2024-03-23T07:11:36;27;23;15
34240;PMS7003;20503;50.200;19.508;2024-03-23T07:12:48;30;24;15
34240;PMS7003;20503;50.200;19.508;2024-03-23T07:13:50;30;24;15
34240;PMS7003;20503;50.200;19.508;2024-03-23T07:14:55;26;20;14
34240;PMS7003;20503;50.200;19.508;2024-03-23T07:15:56;26;20;14
34240;PMS7003;20503;50.200;19.508;2024-03-23T07:17:01;34;22;14
34240;PMS7003;20503;50.200;19.508;2024-03-23T07:18:02;34;22;14
34240;PMS7003;20503;50.200;19.508;2024-03-23T07:19:22;27;25;15
34240;PMS7003;20503;50.200;19.508;2024-03-23T07:20:26;28;23;14
34240;PMS7003;20503;50.200;19.508;2024-03-23T07:21:30;29;22;14
34240;PMS7003;20503;50.200;19.508;2024-03-23T07:22:31;29;22;14
34240;PMS7003;20503;50.200;19.508;2024-03-23T07:23:33;28;23;14
34240;PMS7003;20503;50.200;19.508;2024-03-23T07:24:35;28;23;14
34240;PMS7003;20503;50.200;19.508;2024-03-23T07:25:40;28;22;13
34240;PMS7003;20503;50.200;19.508;2024-03-23T07:26:41;24;21;14
34240;PMS7003;20503;50.200;19.508;2024-03-23T07:27:42;24;20;14
34240;PMS7003;20503;50.200;19.508;2024-03-23T07:28:44;24;20;14
34240;PMS7003;20503;50.200;19.508;2024-03-23T07:29:47;23;19;13
34240;PMS7003;20503;50.200;19.508;2024-03-23T07:31:11;23;19;13
34240;PMS7003;20503;50.200;19.508;2024-03-23T07:32:02;28;21;12
34240;PMS7003;20503;50.200;19.508;2024-03-23T07:33:04;26;21;12
34240;PMS7003;20503;50.200;19.508;2024-03-23T07:34:05;27;23;14
34240;PMS7003;20503;50.200;19.508;2024-03-23T07:35:07;33;26;17
34240;PMS7003;20503;50.200;19.508;2024-03-23T07:36:09;35;28;17